YCO weather

Kugluktuk Airport
Kugluktuk, Nunavut, Canada

Public forecast

Using degrees Celsius for public forecast. Weather courtesy of forecast.io.

METAR (pilot weather report)

Retrieved 2019/07/22 09:25 UTC (7 minutes ago):

CYCO 220925Z VRB02KT 15SM OVC061 07/04 A3008 RMK SC8 SLP188

TAF (pilot weather forecast)

Retrieved 2019/07/22 07:42 UTC (2 hours ago):

TAF CYCO 220638Z 2207/2219 09005KT P6SM BKN060 FM221300 09005KT P6SM BKN040 TEMPO 2213/2219 P6SM -RA BKN020 RMK NXT FCST BY 221300Z